sensor_id;sensor_type;location;lat;lon;timestamp;pressure;altitude;pressure_sealevel;temperature;humidity
58295;BME280;45705;55.592;37.460;2022-10-30T00:00:04;97385.28;;;10.39;100.00
58295;BME280;45705;55.592;37.460;2022-10-30T00:02:37;97385.59;;;10.38;100.00
58295;BME280;45705;55.592;37.460;2022-10-30T00:05:03;97383.78;;;10.42;100.00
58295;BME280;45705;55.592;37.460;2022-10-30T00:07:29;97386.81;;;10.40;100.00
58295;BME280;45705;55.592;37.460;2022-10-30T00:09:55;97383.78;;;10.42;100.00
58295;BME280;45705;55.592;37.460;2022-10-30T00:12:20;97381.06;;;10.42;100.00
58295;BME280;45705;55.592;37.460;2022-10-30T00:14:46;97377.19;;;10.59;100.00
58295;BME280;45705;55.592;37.460;2022-10-30T00:17:12;97362.47;;;10.44;100.00
58295;BME280;45705;55.592;37.460;2022-10-30T00:19:37;97375.09;;;10.52;100.00
58295;BME280;45705;55.592;37.460;2022-10-30T00:22:03;97371.59;;;10.52;100.00
58295;BME280;45705;55.592;37.460;2022-10-30T00:24:29;97355.00;;;10.41;100.00
58295;BME280;45705;55.592;37.460;2022-10-30T00:26:54;97365.38;;;10.51;100.00
58295;BME280;45705;55.592;37.460;2022-10-30T00:29:21;97360.81;;;10.55;100.00
58295;BME280;45705;55.592;37.460;2022-10-30T00:31:52;97351.44;;;10.53;100.00
58295;BME280;45705;55.592;37.460;2022-10-30T00:34:18;97346.59;;;10.46;100.00
58295;BME280;45705;55.592;37.460;2022-10-30T00:36:44;97349.75;;;10.48;100.00
58295;BME280;45705;55.592;37.460;2022-10-30T00:39:10;97350.81;;;10.43;100.00
58295;BME280;45705;55.592;37.460;2022-10-30T00:41:36;97345.72;;;10.42;100.00
58295;BME280;45705;55.592;37.460;2022-10-30T00:47:00;97339.75;;;10.52;100.00
58295;BME280;45705;55.592;37.460;2022-10-30T00:49:35;97339.94;;;10.59;100.00
58295;BME280;45705;55.592;37.460;2022-10-30T00:52:04;97326.03;;;10.45;100.00
58295;BME280;45705;55.592;37.460;2022-10-30T00:54:31;97339.94;;;10.59;100.00
58295;BME280;45705;55.592;37.460;2022-10-30T00:56:58;97338.59;;;10.69;100.00
58295;BME280;45705;55.592;37.460;2022-10-30T00:59:29;97311.03;;;10.51;100.00
58295;BME280;45705;55.592;37.460;2022-10-30T01:02:00;97334.25;;;10.64;100.00
58295;BME280;45705;55.592;37.460;2022-10-30T01:04:28;97330.19;;;10.58;100.00
58295;BME280;45705;55.592;37.460;2022-10-30T01:06:54;97332.03;;;10.54;100.00
58295;BME280;45705;55.592;37.460;2022-10-30T01:09:21;97293.69;;;10.40;100.00
58295;BME280;45705;55.592;37.460;2022-10-30T01:11:47;97324.50;;;10.63;100.00
58295;BME280;45705;55.592;37.460;2022-10-30T01:14:16;97311.00;;;10.67;100.00
58295;BME280;45705;55.592;37.460;2022-10-30T01:25:24;97308.53;;;10.78;100.00
58295;BME280;45705;55.592;37.460;2022-10-30T01:28:03;97314.66;;;10.75;100.00
58295;BME280;45705;55.592;37.460;2022-10-30T01:30:42;97309.81;;;10.84;100.00
58295;BME280;45705;55.592;37.460;2022-10-30T01:33:25;97294.78;;;10.90;100.00
58295;BME280;45705;55.592;37.460;2022-10-30T01:35:58;97302.59;;;10.92;100.00
58295;BME280;45705;55.592;37.460;2022-10-30T01:38:45;97300.25;;;10.90;100.00
58295;BME280;45705;55.592;37.460;2022-10-30T01:41:13;97307.97;;;10.88;100.00
58295;BME280;45705;55.592;37.460;2022-10-30T01:43:42;97292.72;;;11.03;100.00
58295;BME280;45705;55.592;37.460;2022-10-30T02:02:09;97293.38;;;10.96;100.00
58295;BME280;45705;55.592;37.460;2022-10-30T02:04:37;97286.13;;;10.84;100.00
58295;BME280;45705;55.592;37.460;2022-10-30T02:07:04;97311.31;;;11.01;100.00
58295;BME280;45705;55.592;37.460;2022-10-30T02:09:35;97299.66;;;11.00;100.00
58295;BME280;45705;55.592;37.460;2022-10-30T02:12:02;97303.59;;;11.03;100.00
58295;BME280;45705;55.592;37.460;2022-10-30T02:14:34;97297.34;;;10.83;100.00
58295;BME280;45705;55.592;37.460;2022-10-30T02:17:05;97302.28;;;10.77;100.00
58295;BME280;45705;55.592;37.460;2022-10-30T02:19:31;97306.06;;;10.73;100.00
58295;BME280;45705;55.592;37.460;2022-10-30T02:22:00;97306.94;;;10.77;100.00
58295;BME280;45705;55.592;37.460;2022-10-30T02:24:28;97306.97;;;10.61;100.00
58295;BME280;45705;55.592;37.460;2022-10-30T02:26:53;97305.97;;;10.69;100.00
58295;BME280;45705;55.592;37.460;2022-10-30T02:29:19;97317.72;;;10.73;100.00
58295;BME280;45705;55.592;37.460;2022-10-30T02:31:47;97309.13;;;10.71;100.00
58295;BME280;45705;55.592;37.460;2022-10-30T02:34:13;97318.63;;;10.61;100.00
58295;BME280;45705;55.592;37.460;2022-10-30T02:36:39;97319.91;;;10.68;100.00
58295;BME280;45705;55.592;37.460;2022-10-30T02:39:04;97318.28;;;10.63;100.00
58295;BME280;45705;55.592;37.460;2022-10-30T02:41:33;97317.50;;;10.62;100.00
58295;BME280;45705;55.592;37.460;2022-10-30T02:43:59;97314.34;;;10.60;100.00
58295;BME280;45705;55.592;37.460;2022-10-30T02:46:26;97315.28;;;10.68;100.00
58295;BME280;45705;55.592;37.460;2022-10-30T02:48:51;97307.31;;;10.59;100.00
58295;BME280;45705;55.592;37.460;2022-10-30T02:51:17;97312.50;;;10.64;100.00
58295;BME280;45705;55.592;37.460;2022-10-30T02:53:43;97313.72;;;10.67;100.00
58295;BME280;45705;55.592;37.460;2022-10-30T02:56:11;97316.94;;;10.73;100.00
58295;BME280;45705;55.592;37.460;2022-10-30T02:58:39;97311.69;;;10.64;100.00
58295;BME280;45705;55.592;37.460;2022-10-30T03:03:33;97309.19;;;10.55;100.00
58295;BME280;45705;55.592;37.460;2022-10-30T03:06:00;97298.31;;;10.55;100.00
58295;BME280;45705;55.592;37.460;2022-10-30T03:08:26;97296.91;;;10.46;100.00
58295;BME280;45705;55.592;37.460;2022-10-30T03:11:00;97291.56;;;10.17;100.00
58295;BME280;45705;55.592;37.460;2022-10-30T03:13:28;97301.72;;;10.20;100.00
58295;BME280;45705;55.592;37.460;2022-10-30T03:16:06;97298.31;;;10.08;100.00
58295;BME280;45705;55.592;37.460;2022-10-30T03:18:32;97300.50;;;10.02;100.00
58295;BME280;45705;55.592;37.460;2022-10-30T03:21:07;97300.66;;;9.93;100.00
58295;BME280;45705;55.592;37.460;2022-10-30T03:23:33;97304.53;;;10.08;100.00
58295;BME280;45705;55.592;37.460;2022-10-30T03:26:00;97296.84;;;10.10;100.00
58295;BME280;45705;55.592;37.460;2022-10-30T03:28:29;97293.75;;;9.96;100.00
58295;BME280;45705;55.592;37.460;2022-10-30T03:31:03;97298.97;;;9.89;100.00
58295;BME280;45705;55.592;37.460;2022-10-30T03:33:31;97301.78;;;9.92;100.00
58295;BME280;45705;55.592;37.460;2022-10-30T03:35:58;97306.34;;;9.88;100.00
58295;BME280;45705;55.592;37.460;2022-10-30T03:38:24;97306.97;;;9.97;100.00
58295;BME280;45705;55.592;37.460;2022-10-30T03:40:50;97308.19;;;10.00;100.00
58295;BME280;45705;55.592;37.460;2022-10-30T03:43:16;97307.13;;;9.89;100.00
58295;BME280;45705;55.592;37.460;2022-10-30T03:45:50;97311.00;;;9.88;100.00
58295;BME280;45705;55.592;37.460;2022-10-30T03:48:18;97310.63;;;9.73;100.00
58295;BME280;45705;55.592;37.460;2022-10-30T03:50:44;97319.69;;;9.65;100.00
58295;BME280;45705;55.592;37.460;2022-10-30T03:53:11;97316.44;;;9.59;100.00
58295;BME280;45705;55.592;37.460;2022-10-30T03:55:38;97320.09;;;9.79;100.00
58295;BME280;45705;55.592;37.460;2022-10-30T03:58:04;97323.81;;;9.59;100.00
58295;BME280;45705;55.592;37.460;2022-10-30T04:00:30;97321.97;;;9.63;100.00
58295;BME280;45705;55.592;37.460;2022-10-30T04:02:58;97332.72;;;9.88;100.00
58295;BME280;45705;55.592;37.460;2022-10-30T04:05:26;97320.69;;;9.73;100.00
58295;BME280;45705;55.592;37.460;2022-10-30T04:08:00;97325.63;;;9.55;100.00
58295;BME280;45705;55.592;37.460;2022-10-30T04:10:30;97328.47;;;9.74;100.00
58295;BME280;45705;55.592;37.460;2022-10-30T04:13:05;97328.47;;;9.74;100.00
58295;BME280;45705;55.592;37.460;2022-10-30T04:15:33;97323.28;;;9.69;100.00
58295;BME280;45705;55.592;37.460;2022-10-30T04:17:59;97325.69;;;9.42;100.00
58295;BME280;45705;55.592;37.460;2022-10-30T04:20:25;97328.59;;;9.50;100.00
58295;BME280;45705;55.592;37.460;2022-10-30T04:23:00;97319.84;;;9.40;100.00
58295;BME280;45705;55.592;37.460;2022-10-30T04:25:28;97319.84;;;9.40;100.00
58295;BME280;45705;55.592;37.460;2022-10-30T04:27:56;97322.09;;;9.38;100.00
58295;BME280;45705;55.592;37.460;2022-10-30T04:30:22;97307.78;;;9.25;100.00
58295;BME280;45705;55.592;37.460;2022-10-30T04:32:52;97309.88;;;9.44;100.00
58295;BME280;45705;55.592;37.460;2022-10-30T04:35:19;97317.25;;;9.32;100.00
58295;BME280;45705;55.592;37.460;2022-10-30T04:37:59;97318.75;;;9.17;100.00
58295;BME280;45705;55.592;37.460;2022-10-30T04:40:28;97307.13;;;9.29;100.00
58295;BME280;45705;55.592;37.460;2022-10-30T04:43:00;97309.50;;;9.18;100.00
58295;BME280;45705;55.592;37.460;2022-10-30T04:45:29;97315.38;;;9.20;100.00
58295;BME280;45705;55.592;37.460;2022-10-30T04:48:04;97317.44;;;9.11;100.00
58295;BME280;45705;55.592;37.460;2022-10-30T04:50:31;97313.72;;;9.15;100.00
58295;BME280;45705;55.592;37.460;2022-10-30T04:52:59;97294.19;;;9.10;100.00
58295;BME280;45705;55.592;37.460;2022-10-30T04:55:25;97303.91;;;8.98;100.00
58295;BME280;45705;55.592;37.460;2022-10-30T04:57:55;97303.69;;;8.91;100.00
58295;BME280;45705;55.592;37.460;2022-10-30T05:00:22;97302.59;;;8.80;100.00
58295;BME280;45705;55.592;37.460;2022-10-30T05:02:47;97303.69;;;8.91;100.00
58295;BME280;45705;55.592;37.460;2022-10-30T05:05:13;97296.44;;;9.07;100.00
58295;BME280;45705;55.592;37.460;2022-10-30T05:07:39;97307.47;;;9.15;100.00
58295;BME280;45705;55.592;37.460;2022-10-30T05:10:06;97302.06;;;9.15;100.00
58295;BME280;45705;55.592;37.460;2022-10-30T05:12:33;97299.59;;;9.10;100.00
58295;BME280;45705;55.592;37.460;2022-10-30T05:14:59;97298.78;;;8.81;100.00
58295;BME280;45705;55.592;37.460;2022-10-30T05:17:24;97304.84;;;8.90;100.00
58295;BME280;45705;55.592;37.460;2022-10-30T05:19:50;97306.59;;;9.11;100.00
58295;BME280;45705;55.592;37.460;2022-10-30T05:22:16;97305.69;;;9.06;100.00
58295;BME280;45705;55.592;37.460;2022-10-30T05:24:42;97308.13;;;9.24;100.00
58295;BME280;45705;55.592;37.460;2022-10-30T05:27:07;97316.16;;;9.20;100.00
58295;BME280;45705;55.592;37.460;2022-10-30T05:29:34;97312.44;;;9.25;100.00
58295;BME280;45705;55.592;37.460;2022-10-30T05:32:00;97310.16;;;9.27;100.00
58295;BME280;45705;55.592;37.460;2022-10-30T05:34:37;97309.47;;;9.30;100.00
58295;BME280;45705;55.592;37.460;2022-10-30T05:37:02;97310.34;;;9.62;100.00
58295;BME280;45705;55.592;37.460;2022-10-30T05:39:28;97311.63;;;9.97;100.00
58295;BME280;45705;55.592;37.460;2022-10-30T05:41:56;97316.78;;;10.02;100.00
58295;BME280;45705;55.592;37.460;2022-10-30T05:44:25;97307.31;;;9.96;100.00
58295;BME280;45705;55.592;37.460;2022-10-30T05:46:50;97317.81;;;9.81;100.00
58295;BME280;45705;55.592;37.460;2022-10-30T05:49:23;97312.94;;;10.03;100.00
58295;BME280;45705;55.592;37.460;2022-10-30T05:51:48;97307.44;;;9.71;100.00
58295;BME280;45705;55.592;37.460;2022-10-30T05:54:15;97312.88;;;9.71;100.00
58295;BME280;45705;55.592;37.460;2022-10-30T05:56:56;97316.66;;;9.82;100.00
58295;BME280;45705;55.592;37.460;2022-10-30T05:59:22;97318.00;;;9.89;100.00
58295;BME280;45705;55.592;37.460;2022-10-30T06:01:48;97318.31;;;9.71;100.00
58295;BME280;45705;55.592;37.460;2022-10-30T06:04:14;97315.75;;;9.91;100.00
58295;BME280;45705;55.592;37.460;2022-10-30T06:06:41;97305.38;;;9.96;100.00
58295;BME280;45705;55.592;37.460;2022-10-30T06:09:06;97323.25;;;9.81;100.00
58295;BME280;45705;55.592;37.460;2022-10-30T06:11:52;97325.69;;;9.86;100.00
58295;BME280;45705;55.592;37.460;2022-10-30T06:14:22;97317.69;;;9.62;100.00
58295;BME280;45705;55.592;37.460;2022-10-30T06:16:50;97321.28;;;9.66;100.00
58295;BME280;45705;55.592;37.460;2022-10-30T06:19:15;97323.66;;;9.68;100.00
58295;BME280;45705;55.592;37.460;2022-10-30T06:21:41;97337.09;;;9.48;100.00
58295;BME280;45705;55.592;37.460;2022-10-30T06:24:13;97347.78;;;9.29;100.00
58295;BME280;45705;55.592;37.460;2022-10-30T06:26:57;97350.94;;;8.90;100.00
58295;BME280;45705;55.592;37.460;2022-10-30T06:29:23;97390.16;;;8.35;89.08
58295;BME280;45705;55.592;37.460;2022-10-30T06:31:49;97362.84;;;8.27;85.70
58295;BME280;45705;55.592;37.460;2022-10-30T06:34:15;97381.31;;;8.01;81.13
58295;BME280;45705;55.592;37.460;2022-10-30T06:36:42;97375.66;;;7.94;79.64
58295;BME280;45705;55.592;37.460;2022-10-30T06:39:08;97385.75;;;7.72;79.51
58295;BME280;45705;55.592;37.460;2022-10-30T06:41:53;97384.16;;;7.71;79.63
58295;BME280;45705;55.592;37.460;2022-10-30T06:44:24;97394.84;;;7.67;79.12
58295;BME280;45705;55.592;37.460;2022-10-30T06:46:52;97382.50;;;7.58;80.17
58295;BME280;45705;55.592;37.460;2022-10-30T06:49:18;97404.09;;;7.66;79.79
58295;BME280;45705;55.592;37.460;2022-10-30T06:51:44;97400.38;;;7.71;80.24
58295;BME280;45705;55.592;37.460;2022-10-30T06:54:10;97394.56;;;7.81;80.00
58295;BME280;45705;55.592;37.460;2022-10-30T06:56:39;97402.16;;;7.67;80.25
58295;BME280;45705;55.592;37.460;2022-10-30T06:59:04;97396.31;;;7.65;80.55
58295;BME280;45705;55.592;37.460;2022-10-30T07:01:44;97408.78;;;7.57;79.66
58295;BME280;45705;55.592;37.460;2022-10-30T07:04:15;97407.94;;;7.44;79.73
58295;BME280;45705;55.592;37.460;2022-10-30T07:06:42;97412.63;;;7.89;78.22
58295;BME280;45705;55.592;37.460;2022-10-30T07:09:08;97408.38;;;8.01;76.44
58295;BME280;45705;55.592;37.460;2022-10-30T07:11:34;97395.59;;;8.35;74.72
58295;BME280;45705;55.592;37.460;2022-10-30T07:14:20;97393.53;;;8.19;74.76
58295;BME280;45705;55.592;37.460;2022-10-30T07:16:55;97390.00;;;8.52;74.64
58295;BME280;45705;55.592;37.460;2022-10-30T07:19:22;97380.84;;;8.57;73.93
58295;BME280;45705;55.592;37.460;2022-10-30T07:21:48;97383.66;;;8.85;72.23
58295;BME280;45705;55.592;37.460;2022-10-30T07:24:15;97389.09;;;8.73;72.38
58295;BME280;45705;55.592;37.460;2022-10-30T07:26:59;97375.94;;;8.25;73.23
58295;BME280;45705;55.592;37.460;2022-10-30T07:29:33;97393.44;;;8.40;75.06
58295;BME280;45705;55.592;37.460;2022-10-30T07:32:20;97380.75;;;8.65;74.79
58295;BME280;45705;55.592;37.460;2022-10-30T07:35:11;97368.72;;;8.17;77.13
58295;BME280;45705;55.592;37.460;2022-10-30T07:38:08;97360.53;;;8.51;76.02
58295;BME280;45705;55.592;37.460;2022-10-30T07:40:43;97353.44;;;8.00;76.14
58295;BME280;45705;55.592;37.460;2022-10-30T07:43:24;97354.63;;;8.24;75.57
58295;BME280;45705;55.592;37.460;2022-10-30T07:46:13;97336.22;;;8.17;75.10
58295;BME280;45705;55.592;37.460;2022-10-30T07:48:57;97336.09;;;7.89;76.27
58295;BME280;45705;55.592;37.460;2022-10-30T07:51:46;97341.31;;;7.73;76.58
58295;BME280;45705;55.592;37.460;2022-10-30T07:54:12;97349.09;;;7.62;76.67
58295;BME280;45705;55.592;37.460;2022-10-30T07:56:38;97347.00;;;7.80;76.17
58295;BME280;45705;55.592;37.460;2022-10-30T07:59:22;97352.59;;;7.75;76.81
58295;BME280;45705;55.592;37.460;2022-10-30T08:02:08;97349.03;;;7.83;76.63
58295;BME280;45705;55.592;37.460;2022-10-30T08:04:54;97339.78;;;7.97;76.57
58295;BME280;45705;55.592;37.460;2022-10-30T08:07:57;97353.44;;;8.00;75.91
58295;BME280;45705;55.592;37.460;2022-10-30T08:10:23;97361.94;;;7.99;76.04
58295;BME280;45705;55.592;37.460;2022-10-30T08:12:49;97349.75;;;8.05;76.35
58295;BME280;45705;55.592;37.460;2022-10-30T08:15:15;97360.34;;;7.98;76.11
58295;BME280;45705;55.592;37.460;2022-10-30T08:17:46;97363.03;;;7.85;76.27
58295;BME280;45705;55.592;37.460;2022-10-30T08:20:14;97370.44;;;7.76;76.71
58295;BME280;45705;55.592;37.460;2022-10-30T08:22:47;97371.53;;;7.75;77.44
58295;BME280;45705;55.592;37.460;2022-10-30T08:25:14;97366.88;;;7.63;77.51
58295;BME280;45705;55.592;37.460;2022-10-30T08:27:56;97368.31;;;7.82;78.17
58295;BME280;45705;55.592;37.460;2022-10-30T08:30:27;97370.13;;;7.57;78.76
58295;BME280;45705;55.592;37.460;2022-10-30T08:32:59;97368.53;;;7.56;80.05
58295;BME280;45705;55.592;37.460;2022-10-30T08:35:50;97359.63;;;7.55;78.82
58295;BME280;45705;55.592;37.460;2022-10-30T08:38:17;97359.22;;;7.99;77.82
58295;BME280;45705;55.592;37.460;2022-10-30T08:40:47;97347.34;;;7.58;78.48
58295;BME280;45705;55.592;37.460;2022-10-30T08:43:13;97340.47;;;7.94;78.58
58295;BME280;45705;55.592;37.460;2022-10-30T08:45:40;97349.94;;;7.87;78.04
58295;BME280;45705;55.592;37.460;2022-10-30T08:48:09;97340.22;;;7.74;77.66
58295;BME280;45705;55.592;37.460;2022-10-30T08:50:37;97341.88;;;7.66;78.17
58295;BME280;45705;55.592;37.460;2022-10-30T08:53:06;97315.44;;;7.97;77.36
58295;BME280;45705;55.592;37.460;2022-10-30T08:55:33;97317.72;;;8.19;76.52
58295;BME280;45705;55.592;37.460;2022-10-30T08:58:01;97318.28;;;8.37;75.05
58295;BME280;45705;55.592;37.460;2022-10-30T09:00:27;97323.03;;;8.40;72.97
58295;BME280;45705;55.592;37.460;2022-10-30T09:03:11;97314.56;;;8.17;73.81
58295;BME280;45705;55.592;37.460;2022-10-30T09:06:15;97312.72;;;7.97;74.18
58295;BME280;45705;55.592;37.460;2022-10-30T09:09:00;97313.44;;;8.06;74.60
58295;BME280;45705;55.592;37.460;2022-10-30T09:11:39;97301.00;;;7.80;75.55
58295;BME280;45705;55.592;37.460;2022-10-30T09:14:06;97308.91;;;7.98;76.09
58295;BME280;45705;55.592;37.460;2022-10-30T09:16:33;97302.84;;;8.13;75.17
58295;BME280;45705;55.592;37.460;2022-10-30T09:18:59;97306.00;;;8.15;75.04
58295;BME280;45705;55.592;37.460;2022-10-30T09:21:25;97291.56;;;8.11;75.31
58295;BME280;45705;55.592;37.460;2022-10-30T09:23:52;97306.44;;;8.05;76.07
58295;BME280;45705;55.592;37.460;2022-10-30T09:26:40;97286.38;;;7.94;77.07
58295;BME280;45705;55.592;37.460;2022-10-30T09:29:19;97278.25;;;7.81;77.52
58295;BME280;45705;55.592;37.460;2022-10-30T09:32:04;97280.94;;;7.81;77.72
58295;BME280;45705;55.592;37.460;2022-10-30T09:34:42;97282.94;;;7.72;78.97
58295;BME280;45705;55.592;37.460;2022-10-30T09:37:20;97284.19;;;7.87;79.13
58295;BME280;45705;55.592;37.460;2022-10-30T09:39:51;97270.53;;;7.71;80.11
58295;BME280;45705;55.592;37.460;2022-10-30T09:42:29;97275.53;;;8.06;80.10
58295;BME280;45705;55.592;37.460;2022-10-30T09:56:01;97287.28;;;8.35;77.00
58295;BME280;45705;55.592;37.460;2022-10-30T10:01:48;97278.69;;;7.83;69.23
58295;BME280;45705;55.592;37.460;2022-10-30T10:07:25;97293.44;;;7.86;69.99
58295;BME280;45705;55.592;37.460;2022-10-30T10:10:03;97292.19;;;7.71;67.98
58295;BME280;45705;55.592;37.460;2022-10-30T10:12:52;97296.69;;;7.67;68.32
58295;BME280;45705;55.592;37.460;2022-10-30T10:15:50;97295.34;;;7.73;68.89
58295;BME280;45705;55.592;37.460;2022-10-30T10:18:32;97302.53;;;7.57;68.44
58295;BME280;45705;55.592;37.460;2022-10-30T10:21:08;97305.81;;;7.62;68.42
58295;BME280;45705;55.592;37.460;2022-10-30T10:23:47;97289.91;;;7.27;68.06
58295;BME280;45705;55.592;37.460;2022-10-30T10:37:41;97289.16;;;7.39;69.55
58295;BME280;45705;55.592;37.460;2022-10-30T10:43:20;97289.88;;;7.48;71.03
58295;BME280;45705;55.592;37.460;2022-10-30T10:51:48;97280.00;;;7.65;75.58
58295;BME280;45705;55.592;37.460;2022-10-30T10:56:47;97267.25;;;7.20;80.27
58295;BME280;45705;55.592;37.460;2022-10-30T10:59:28;97276.63;;;7.01;82.60
58295;BME280;45705;55.592;37.460;2022-10-30T11:04:51;97290.81;;;6.77;78.85
58295;BME280;45705;55.592;37.460;2022-10-30T11:09:53;97278.47;;;6.67;71.56
58295;BME280;45705;55.592;37.460;2022-10-30T11:12:27;97286.88;;;6.45;72.88
58295;BME280;45705;55.592;37.460;2022-10-30T11:14:54;97293.59;;;6.39;72.23
58295;BME280;45705;55.592;37.460;2022-10-30T11:17:40;97307.75;;;6.57;71.16
58295;BME280;45705;55.592;37.460;2022-10-30T11:20:16;97304.00;;;6.49;69.23
58295;BME280;45705;55.592;37.460;2022-10-30T11:22:46;97322.16;;;6.40;69.43
58295;BME280;45705;55.592;37.460;2022-10-30T11:25:19;97335.59;;;6.48;69.13
58295;BME280;45705;55.592;37.460;2022-10-30T11:27:48;97337.28;;;6.32;70.53
58295;BME280;45705;55.592;37.460;2022-10-30T11:30:19;97341.16;;;6.14;78.01
58295;BME280;45705;55.592;37.460;2022-10-30T11:32:45;97343.41;;;6.11;82.04
58295;BME280;45705;55.592;37.460;2022-10-30T11:35:14;97339.53;;;5.74;84.11
58295;BME280;45705;55.592;37.460;2022-10-30T11:37:41;97347.66;;;5.22;89.50
58295;BME280;45705;55.592;37.460;2022-10-30T11:42:37;97349.88;;;5.20;90.22
58295;BME280;45705;55.592;37.460;2022-10-30T11:45:04;97352.25;;;5.30;90.14
58295;BME280;45705;55.592;37.460;2022-10-30T11:47:37;97354.47;;;5.45;89.75
58295;BME280;45705;55.592;37.460;2022-10-30T11:50:12;97358.13;;;5.32;86.96
58295;BME280;45705;55.592;37.460;2022-10-30T11:52:40;97358.91;;;5.41;85.46
58295;BME280;45705;55.592;37.460;2022-10-30T11:55:17;97363.63;;;5.62;85.22
58295;BME280;45705;55.592;37.460;2022-10-30T11:57:47;97342.41;;;5.51;84.73
58295;BME280;45705;55.592;37.460;2022-10-30T12:00:20;97335.13;;;5.43;84.78
58295;BME280;45705;55.592;37.460;2022-10-30T12:02:48;97341.91;;;5.58;82.95
58295;BME280;45705;55.592;37.460;2022-10-30T12:07:50;97332.88;;;5.63;81.59
58295;BME280;45705;55.592;37.460;2022-10-30T12:10:27;97331.44;;;5.74;79.82
58295;BME280;45705;55.592;37.460;2022-10-30T12:12:53;97329.72;;;5.61;80.41
58295;BME280;45705;55.592;37.460;2022-10-30T12:15:23;97338.28;;;5.63;79.87
58295;BME280;45705;55.592;37.460;2022-10-30T12:17:57;97341.78;;;5.55;78.34
58295;BME280;45705;55.592;37.460;2022-10-30T12:20:24;97335.50;;;5.89;78.26
58295;BME280;45705;55.592;37.460;2022-10-30T12:22:50;97328.84;;;5.95;77.40
58295;BME280;45705;55.592;37.460;2022-10-30T12:25:29;97344.88;;;5.91;74.58
58295;BME280;45705;55.592;37.460;2022-10-30T12:28:06;97349.44;;;5.91;75.43
58295;BME280;45705;55.592;37.460;2022-10-30T12:30:51;97341.41;;;5.82;74.12
58295;BME280;45705;55.592;37.460;2022-10-30T12:33:20;97347.72;;;6.04;72.12
58295;BME280;45705;55.592;37.460;2022-10-30T12:43:51;97332.91;;;6.10;68.25
58295;BME280;45705;55.592;37.460;2022-10-30T12:46:29;97337.28;;;6.32;68.44
58295;BME280;45705;55.592;37.460;2022-10-30T12:49:19;97330.91;;;6.37;66.99
58295;BME280;45705;55.592;37.460;2022-10-30T12:51:52;97325.59;;;6.49;64.54
58295;BME280;45705;55.592;37.460;2022-10-30T12:54:38;97329.59;;;6.13;65.12
58295;BME280;45705;55.592;37.460;2022-10-30T12:57:16;97330.53;;;6.17;65.66
58295;BME280;45705;55.592;37.460;2022-10-30T12:59:45;97342.81;;;5.97;64.01
58295;BME280;45705;55.592;37.460;2022-10-30T13:04:48;97334.97;;;6.13;64.68
58295;BME280;45705;55.592;37.460;2022-10-30T13:07:25;97341.94;;;6.14;63.22
58295;BME280;45705;55.592;37.460;2022-10-30T13:10:19;97344.06;;;5.91;63.17
58295;BME280;45705;55.592;37.460;2022-10-30T13:12:49;97346.13;;;5.94;63.70
58295;BME280;45705;55.592;37.460;2022-10-30T13:15:27;97347.09;;;5.81;64.25
58295;BME280;45705;55.592;37.460;2022-10-30T13:17:58;97338.91;;;5.68;65.06
58295;BME280;45705;55.592;37.460;2022-10-30T13:20:27;97332.53;;;5.73;66.69
58295;BME280;45705;55.592;37.460;2022-10-30T13:23:00;97364.63;;;5.22;71.05
58295;BME280;45705;55.592;37.460;2022-10-30T13:25:34;97341.63;;;5.07;72.66
58295;BME280;45705;55.592;37.460;2022-10-30T13:28:26;97366.66;;;4.90;74.59
58295;BME280;45705;55.592;37.460;2022-10-30T13:31:50;97380.28;;;5.03;73.82
58295;BME280;45705;55.592;37.460;2022-10-30T13:34:25;97414.16;;;4.38;88.45
58295;BME280;45705;55.592;37.460;2022-10-30T13:37:00;97421.97;;;3.63;99.61
58295;BME280;45705;55.592;37.460;2022-10-30T13:39:53;97437.31;;;2.75;100.00
58295;BME280;45705;55.592;37.460;2022-10-30T13:42:35;97453.19;;;2.58;100.00
58295;BME280;45705;55.592;37.460;2022-10-30T13:48:28;97455.75;;;2.35;100.00
58295;BME280;45705;55.592;37.460;2022-10-30T13:51:00;97439.28;;;1.63;100.00
58295;BME280;45705;55.592;37.460;2022-10-30T13:53:31;97448.03;;;1.68;100.00
58295;BME280;45705;55.592;37.460;2022-10-30T13:55:58;97431.91;;;1.54;100.00
58295;BME280;45705;55.592;37.460;2022-10-30T14:01:30;97448.50;;;1.37;100.00
58295;BME280;45705;55.592;37.460;2022-10-30T14:04:09;97438.28;;;1.40;100.00
58295;BME280;45705;55.592;37.460;2022-10-30T14:09:39;97415.13;;;1.82;100.00
58295;BME280;45705;55.592;37.460;2022-10-30T14:15:44;97415.72;;;1.79;100.00
58295;BME280;45705;55.592;37.460;2022-10-30T14:20:39;97416.13;;;1.86;100.00
58295;BME280;45705;55.592;37.460;2022-10-30T14:25:38;97439.97;;;1.87;100.00
58295;BME280;45705;55.592;37.460;2022-10-30T14:28:04;97444.75;;;1.90;100.00
58295;BME280;45705;55.592;37.460;2022-10-30T14:30:33;97405.41;;;1.86;100.00
58295;BME280;45705;55.592;37.460;2022-10-30T14:32:58;97399.63;;;2.11;100.00
58295;BME280;45705;55.592;37.460;2022-10-30T14:35:35;97412.09;;;1.88;100.00
58295;BME280;45705;55.592;37.460;2022-10-30T14:43:44;97417.75;;;2.01;100.00
58295;BME280;45705;55.592;37.460;2022-10-30T14:46:22;97421.28;;;1.82;100.00
58295;BME280;45705;55.592;37.460;2022-10-30T14:51:52;97423.31;;;1.57;100.00
58295;BME280;45705;55.592;37.460;2022-10-30T14:54:58;97431.47;;;1.47;100.00
58295;BME280;45705;55.592;37.460;2022-10-30T14:58:13;97423.16;;;1.49;100.00
58295;BME280;45705;55.592;37.460;2022-10-30T15:03:15;97440.03;;;1.49;100.00
58295;BME280;45705;55.592;37.460;2022-10-30T15:05:51;97442.47;;;1.65;100.00
58295;BME280;45705;55.592;37.460;2022-10-30T15:13:50;97443.50;;;1.31;100.00
58295;BME280;45705;55.592;37.460;2022-10-30T15:16:18;97443.34;;;1.41;100.00
58295;BME280;45705;55.592;37.460;2022-10-30T15:18:56;97470.56;;;1.48;100.00
58295;BME280;45705;55.592;37.460;2022-10-30T15:21:23;97459.69;;;1.58;100.00